createdAt,value
2017-05-16T00:00:07.911Z,85.79
2017-05-16T00:01:08.447Z,85.82
2017-05-16T00:02:07.976Z,85.73
2017-05-16T00:03:07.515Z,85.09
2017-05-16T00:04:08.088Z,85.47
2017-05-16T00:05:07.593Z,85.28
2017-05-16T00:06:08.473Z,85.38
2017-05-16T00:07:07.961Z,85.18
2017-05-16T00:08:07.644Z,85.25
2017-05-16T00:09:08.265Z,85.19
2017-05-16T00:10:08.054Z,85.25
2017-05-16T00:11:07.635Z,85.10
2017-05-16T00:12:08.272Z,85.15
2017-05-16T00:13:07.929Z,85.85
2017-05-16T00:14:08.408Z,85.57
2017-05-16T00:15:07.936Z,85.73
2017-05-16T00:16:07.609Z,85.71
2017-05-16T00:17:08.286Z,85.55
2017-05-16T00:18:07.984Z,85.27
2017-05-16T00:19:07.545Z,85.65
2017-05-16T00:20:08.132Z,85.63
2017-05-16T00:21:07.735Z,85.00
2017-05-16T00:22:08.305Z,85.09
2017-05-16T00:23:07.992Z,84.64
2017-05-16T00:24:07.596Z,85.28
2017-05-16T00:25:08.018Z,85.54
2017-05-16T00:26:07.951Z,86.20
2017-05-16T00:27:07.544Z,86.25
2017-05-16T00:28:08.191Z,86.46
2017-05-16T00:29:07.662Z,85.89
2017-05-16T00:30:08.391Z,85.79
2017-05-16T00:31:08.014Z,85.53
2017-05-16T00:32:07.574Z,85.13
2017-05-16T00:33:08.304Z,85.09
2017-05-16T00:34:07.873Z,84.85
2017-05-16T00:35:08.422Z,84.68
2017-05-16T00:36:08.059Z,85.02
2017-05-16T00:37:07.632Z,84.82
2017-05-16T00:38:08.227Z,84.81
2017-05-16T00:40:08.547Z,85.13
2017-05-16T00:40:08.558Z,84.42
2017-05-16T00:41:08.143Z,85.15
2017-05-16T00:42:07.723Z,85.37
2017-05-16T00:43:08.438Z,85.23
2017-05-16T00:44:07.986Z,85.20
2017-05-16T00:45:07.825Z,85.42
2017-05-16T00:46:08.408Z,85.43
2017-05-16T00:47:08.047Z,85.53
2017-05-16T00:48:07.527Z,85.52
2017-05-16T00:49:08.204Z,85.15
2017-05-16T00:50:07.806Z,85.58
2017-05-16T00:51:08.442Z,85.95
2017-05-16T00:52:07.992Z,85.53
2017-05-16T00:53:07.554Z,85.15
2017-05-16T00:54:08.191Z,85.78
2017-05-16T00:55:07.868Z,85.97
2017-05-16T00:56:08.461Z,85.70
2017-05-16T00:57:08.273Z,85.49
2017-05-16T00:58:08.095Z,85.64
2017-05-16T00:59:07.726Z,85.59
2017-05-16T01:00:08.365Z,85.51
2017-05-16T01:01:08.004Z,85.13
2017-05-16T01:02:07.671Z,85.03
2017-05-16T01:03:08.256Z,85.05
2017-05-16T01:04:07.803Z,85.35
2017-05-16T01:05:08.370Z,85.66
2017-05-16T01:06:07.979Z,85.46
2017-05-16T01:07:07.535Z,85.76
2017-05-16T01:08:08.064Z,86.77
2017-05-16T01:09:07.722Z,86.36
2017-05-16T01:10:08.327Z,85.81
2017-05-16T01:11:07.879Z,85.42
2017-05-16T01:12:08.464Z,85.54
2017-05-16T01:13:08.155Z,85.64
2017-05-16T01:14:07.800Z,85.64
2017-05-16T01:15:08.352Z,85.63
2017-05-16T01:16:08.156Z,85.18
2017-05-16T01:17:07.900Z,84.77
2017-05-16T01:18:08.459Z,85.01
2017-05-16T01:19:08.186Z,85.18
2017-05-16T01:20:07.738Z,85.59
2017-05-16T01:21:08.378Z,85.18
2017-05-16T01:22:07.892Z,85.30
2017-05-16T01:23:08.507Z,85.57
2017-05-16T01:24:08.351Z,85.83
2017-05-16T01:25:08.206Z,85.65
2017-05-16T01:26:07.749Z,85.56
2017-05-16T01:27:08.327Z,85.44
2017-05-16T01:28:07.886Z,85.68
2017-05-16T01:29:08.549Z,85.04
2017-05-16T01:30:08.134Z,84.93
2017-05-16T01:31:07.754Z,85.07
2017-05-16T01:32:08.308Z,85.37
2017-05-16T01:33:07.916Z,85.41
2017-05-16T01:34:07.482Z,85.50
2017-05-16T01:35:08.180Z,85.28
2017-05-16T01:36:07.807Z,84.98
2017-05-16T01:37:08.393Z,84.68
2017-05-16T01:38:08.011Z,85.03
2017-05-16T01:39:07.581Z,84.85
2017-05-16T01:40:08.120Z,84.99
2017-05-16T01:41:07.750Z,84.95
2017-05-16T01:42:08.351Z,84.84
2017-05-16T01:43:07.987Z,84.84
2017-05-16T01:44:07.655Z,84.98
2017-05-16T01:45:08.285Z,85.90
2017-05-16T01:46:07.823Z,85.93
2017-05-16T01:47:08.395Z,85.73
2017-05-16T01:48:07.966Z,85.68
2017-05-16T01:49:07.550Z,85.27
2017-05-16T01:50:08.174Z,85.38
2017-05-16T01:51:07.799Z,84.94
2017-05-16T01:52:08.449Z,85.00
2017-05-16T01:53:08.016Z,84.78
2017-05-16T01:54:07.585Z,85.13
2017-05-16T01:55:08.278Z,84.99
2017-05-16T01:56:07.901Z,84.96
2017-05-16T01:57:08.502Z,85.09
2017-05-16T01:58:08.005Z,85.04
2017-05-16T01:59:07.588Z,84.55
2017-05-16T02:00:08.207Z,85.15
2017-05-16T02:01:07.742Z,85.23
2017-05-16T02:02:08.344Z,85.64
2017-05-16T02:03:08.053Z,85.55
2017-05-16T02:04:07.804Z,85.35
2017-05-16T02:05:08.461Z,85.23
2017-05-16T02:06:08.073Z,84.64
2017-05-16T02:07:07.590Z,84.87
2017-05-16T02:08:08.087Z,84.77
2017-05-16T02:09:07.672Z,84.74
2017-05-16T02:10:08.278Z,84.80
2017-05-16T02:11:07.814Z,84.44
2017-05-16T02:12:08.412Z,85.08
2017-05-16T02:13:08.075Z,85.33
2017-05-16T02:14:07.668Z,84.87
2017-05-16T02:15:08.366Z,84.97
2017-05-16T02:16:07.987Z,84.82
2017-05-16T02:17:07.730Z,84.50
2017-05-16T02:18:08.351Z,84.58
2017-05-16T02:19:07.903Z,84.48
2017-05-16T02:20:07.403Z,84.45
2017-05-16T02:21:08.036Z,84.34
2017-05-16T02:22:07.753Z,84.63
2017-05-16T02:23:08.375Z,84.57
2017-05-16T02:24:07.903Z,84.87
2017-05-16T02:25:07.445Z,84.68
2017-05-16T02:26:08.398Z,84.72
2017-05-16T02:27:07.912Z,84.82
2017-05-16T02:28:07.557Z,85.04
2017-05-16T02:29:08.109Z,85.20
2017-05-16T02:30:07.707Z,85.40
2017-05-16T02:31:08.329Z,85.38
2017-05-16T02:32:07.911Z,85.56
2017-05-16T02:33:07.452Z,85.11
2017-05-16T02:34:07.937Z,84.98
2017-05-16T02:35:07.489Z,84.63
2017-05-16T02:36:08.153Z,84.32
2017-05-16T02:37:07.721Z,84.41
2017-05-16T02:38:08.327Z,84.36
2017-05-16T02:39:08.247Z,84.71
2017-05-16T02:40:07.775Z,84.89
2017-05-16T02:41:08.298Z,84.49
2017-05-16T02:42:07.764Z,84.56
2017-05-16T02:43:08.304Z,85.22
2017-05-16T02:44:07.818Z,85.05
2017-05-16T02:45:08.440Z,84.75
2017-05-16T02:46:08.112Z,85.06
2017-05-16T02:47:07.614Z,84.70
2017-05-16T02:48:08.487Z,84.94
2017-05-16T02:49:07.971Z,85.04
2017-05-16T02:50:07.816Z,85.06
2017-05-16T02:51:08.466Z,84.94
2017-05-16T02:52:08.046Z,84.98
2017-05-16T02:53:07.544Z,84.53
2017-05-16T02:54:08.146Z,84.59
2017-05-16T02:55:07.744Z,84.71
2017-05-16T02:56:08.436Z,84.20
2017-05-16T02:57:08.070Z,84.42
2017-05-16T02:58:07.599Z,84.64
2017-05-16T02:59:08.351Z,85.07
2017-05-16T03:00:07.968Z,84.57
2017-05-16T03:01:07.536Z,84.89
2017-05-16T03:02:08.078Z,84.99
2017-05-16T03:03:07.624Z,84.89
2017-05-16T03:04:08.276Z,84.83
2017-05-16T03:05:07.859Z,84.46
2017-05-16T03:06:08.491Z,84.25
2017-05-16T03:07:08.041Z,83.76
2017-05-16T03:08:07.617Z,84.02
2017-05-16T03:09:08.171Z,84.12
2017-05-16T03:10:07.762Z,84.27
2017-05-16T03:11:08.658Z,84.33
2017-05-16T03:12:08.276Z,84.43
2017-05-16T03:13:07.911Z,84.74
2017-05-16T03:14:07.480Z,84.73
2017-05-16T03:15:08.063Z,84.35
2017-05-16T03:16:07.675Z,83.79
2017-05-16T03:17:08.356Z,84.17
2017-05-16T03:18:07.921Z,83.95
2017-05-16T03:19:07.748Z,83.93
2017-05-16T03:20:08.254Z,84.17
2017-05-16T03:21:07.863Z,84.61
2017-05-16T03:22:08.518Z,84.52
2017-05-16T03:23:08.091Z,84.02
2017-05-16T03:24:07.572Z,84.12
2017-05-16T03:25:08.604Z,84.11
2017-05-16T03:26:08.475Z,84.42
2017-05-16T03:27:08.374Z,84.40
2017-05-16T03:28:07.931Z,84.29
2017-05-16T03:29:07.512Z,84.27
2017-05-16T03:30:08.119Z,84.61
2017-05-16T03:31:07.973Z,84.84
2017-05-16T03:32:07.555Z,84.83
2017-05-16T03:33:08.174Z,84.85
2017-05-16T03:34:07.753Z,84.71
2017-05-16T03:35:08.359Z,84.94
2017-05-16T03:36:07.998Z,84.68
2017-05-16T03:37:07.605Z,85.20
2017-05-16T03:38:08.219Z,84.86
2017-05-16T03:39:07.801Z,84.33
2017-05-16T03:40:08.439Z,84.76
2017-05-16T03:41:07.994Z,84.51
2017-05-16T03:42:07.501Z,84.20
2017-05-16T03:43:08.192Z,84.21
2017-05-16T03:44:07.824Z,84.56
2017-05-16T03:45:08.668Z,84.83
2017-05-16T03:46:08.309Z,84.95
2017-05-16T03:47:08.179Z,84.69
2017-05-16T03:48:07.782Z,84.86
2017-05-16T03:49:08.424Z,85.42
2017-05-16T03:50:08.069Z,85.87
2017-05-16T03:51:07.871Z,84.89
2017-05-16T03:52:08.471Z,85.08
2017-05-16T03:53:08.115Z,85.03
2017-05-16T03:54:07.651Z,85.20
2017-05-16T03:55:08.437Z,85.09
2017-05-16T03:56:07.928Z,85.33
2017-05-16T03:57:07.558Z,85.56
2017-05-16T03:58:08.280Z,85.17
2017-05-16T03:59:07.857Z,84.84
2017-05-16T04:00:08.414Z,84.73
2017-05-16T04:01:07.962Z,84.75
2017-05-16T04:02:07.587Z,84.48
2017-05-16T04:03:08.235Z,84.57
2017-05-16T04:04:07.789Z,84.76
2017-05-16T04:05:08.426Z,84.68
2017-05-16T04:06:08.077Z,84.88
2017-05-16T04:07:07.738Z,85.16
2017-05-16T04:08:08.363Z,85.59
2017-05-16T04:09:08.100Z,85.71
2017-05-16T04:10:07.585Z,85.88
2017-05-16T04:11:08.147Z,85.93
2017-05-16T04:12:07.710Z,85.91
2017-05-16T04:13:08.412Z,85.52
2017-05-16T04:14:07.989Z,85.68
2017-05-16T04:15:07.632Z,85.70
2017-05-16T04:16:08.252Z,85.98
2017-05-16T04:17:07.913Z,85.32
2017-05-16T04:18:08.494Z,85.07
2017-05-16T04:19:08.066Z,85.31
2017-05-16T04:20:07.901Z,85.65
2017-05-16T04:21:08.552Z,85.47
2017-05-16T04:22:08.105Z,86.21
2017-05-16T04:23:07.689Z,85.97
2017-05-16T04:24:07.861Z,86.31
2017-05-16T04:25:10.967Z,86.48
2017-05-16T04:26:08.105Z,86.46
2017-05-16T04:27:07.921Z,86.08
2017-05-16T04:28:07.595Z,85.94
2017-05-16T04:29:08.231Z,86.69
2017-05-16T04:30:07.728Z,86.57
2017-05-16T04:31:08.431Z,86.99
2017-05-16T04:32:08.024Z,86.92
2017-05-16T04:33:07.598Z,86.97
2017-05-16T04:34:08.525Z,86.62
2017-05-16T04:35:08.142Z,86.95
2017-05-16T04:36:07.721Z,86.99
2017-05-16T04:37:08.290Z,87.75
2017-05-16T04:38:07.904Z,88.11
2017-05-16T04:39:08.513Z,88.14
2017-05-16T04:40:08.104Z,87.91
2017-05-16T04:41:07.712Z,87.72
2017-05-16T04:42:08.365Z,87.47
2017-05-16T04:43:07.989Z,87.05
2017-05-16T04:44:07.479Z,87.53
2017-05-16T04:45:08.075Z,87.94
2017-05-16T04:46:07.969Z,88.37
2017-05-16T04:47:07.464Z,88.41
2017-05-16T04:48:08.079Z,88.80
2017-05-16T04:49:07.618Z,88.76
2017-05-16T04:50:08.252Z,88.05
2017-05-16T04:51:07.735Z,87.75
2017-05-16T04:52:08.285Z,87.36
2017-05-16T04:53:07.816Z,87.36
2017-05-16T04:54:08.417Z,87.80
2017-05-16T04:55:08.034Z,87.93
2017-05-16T04:56:07.673Z,88.64
2017-05-16T04:57:08.231Z,88.67
2017-05-16T04:58:07.805Z,88.43
2017-05-16T04:59:08.786Z,88.33
2017-05-16T05:00:08.455Z,88.60
2017-05-16T05:01:08.065Z,88.46
2017-05-16T05:02:07.573Z,88.35
2017-05-16T05:03:08.111Z,88.43
2017-05-16T05:04:07.700Z,89.01
2017-05-16T05:05:08.285Z,88.73
2017-05-16T05:06:07.856Z,89.76
2017-05-16T05:07:08.561Z,89.40
2017-05-16T05:08:08.166Z,89.35
2017-05-16T05:09:07.746Z,88.52
2017-05-16T05:10:08.426Z,88.74
2017-05-16T05:11:08.051Z,89.15
2017-05-16T05:12:07.609Z,88.99
2017-05-16T05:13:08.083Z,89.29
2017-05-16T05:14:07.649Z,88.88
2017-05-16T05:15:08.238Z,88.62
2017-05-16T05:16:07.706Z,88.79
2017-05-16T05:17:08.397Z,89.06
2017-05-16T05:18:08.030Z,89.37
2017-05-16T05:19:07.589Z,88.91
2017-05-16T05:20:08.179Z,89.28
2017-05-16T05:21:07.689Z,89.09
2017-05-16T05:22:08.549Z,89.28
2017-05-16T05:23:08.080Z,88.92
2017-05-16T05:24:07.656Z,88.34
2017-05-16T05:25:08.303Z,88.53
2017-05-16T05:26:07.771Z,89.44
2017-05-16T05:27:08.385Z,89.70
2017-05-16T05:28:07.973Z,89.38
2017-05-16T05:29:07.520Z,89.71
2017-05-16T05:30:08.091Z,88.75
2017-05-16T05:31:07.667Z,89.60
2017-05-16T05:32:08.261Z,89.74
2017-05-16T05:33:07.791Z,89.52
2017-05-16T05:34:08.482Z,89.86
2017-05-16T05:35:08.098Z,90.43
2017-05-16T05:36:07.692Z,90.34
2017-05-16T05:37:08.193Z,90.74
2017-05-16T05:38:07.748Z,90.73
2017-05-16T05:39:08.355Z,90.41
2017-05-16T05:40:07.924Z,89.68
2017-05-16T05:41:08.574Z,89.52
2017-05-16T05:42:08.189Z,89.57
2017-05-16T05:43:07.681Z,90.26
2017-05-16T05:44:08.199Z,90.98
2017-05-16T05:45:07.684Z,91.16
2017-05-16T05:46:08.311Z,91.08
2017-05-16T05:47:08.104Z,90.68
2017-05-16T05:48:07.652Z,90.85
2017-05-16T05:49:08.222Z,91.47
2017-05-16T05:50:07.773Z,91.50
2017-05-16T05:51:08.385Z,91.23
2017-05-16T05:52:07.884Z,91.14
2017-05-16T05:53:08.549Z,90.52
2017-05-16T05:54:08.226Z,90.41
2017-05-16T05:55:07.885Z,90.89
2017-05-16T05:56:08.437Z,91.58
2017-05-16T05:57:07.938Z,91.35
2017-05-16T05:58:07.484Z,91.45
2017-05-16T05:59:08.066Z,91.29
2017-05-16T06:00:07.630Z,91.01
2017-05-16T06:01:08.202Z,91.34
2017-05-16T06:02:07.780Z,91.82
2017-05-16T06:03:08.354Z,91.98
2017-05-16T06:04:07.908Z,92.01
2017-05-16T06:05:08.429Z,91.74
2017-05-16T06:06:08.055Z,92.03
2017-05-16T06:07:07.872Z,92.33
2017-05-16T06:08:08.459Z,92.66
2017-05-16T06:09:08.216Z,91.93
2017-05-16T06:10:07.781Z,91.98
2017-05-16T06:11:08.418Z,91.69
2017-05-16T06:12:07.988Z,91.19
2017-05-16T06:13:07.537Z,92.22
2017-05-16T06:14:08.120Z,92.32
2017-05-16T06:15:07.794Z,92.47
2017-05-16T06:16:08.385Z,93.05
2017-05-16T06:17:08.002Z,93.18
2017-05-16T06:18:07.638Z,93.12
2017-05-16T06:19:08.150Z,93.32
2017-05-16T06:20:07.791Z,92.81
2017-05-16T06:21:08.278Z,93.21
2017-05-16T06:22:07.860Z,92.75
2017-05-16T06:23:08.336Z,92.93
2017-05-16T06:24:08.690Z,92.85
2017-05-16T06:25:08.466Z,93.63
2017-05-16T06:26:08.056Z,92.36
2017-05-16T06:27:07.556Z,92.30
2017-05-16T06:28:08.135Z,92.72
2017-05-16T06:29:07.749Z,92.61
2017-05-16T06:30:08.443Z,93.24
2017-05-16T06:31:07.991Z,92.95
2017-05-16T06:32:07.693Z,92.09
2017-05-16T06:33:08.348Z,92.42
2017-05-16T06:34:08.002Z,92.46
2017-05-16T06:35:07.590Z,92.97
2017-05-16T06:36:08.136Z,93.20
2017-05-16T06:37:07.763Z,92.98
2017-05-16T06:38:08.369Z,92.93
2017-05-16T06:39:07.948Z,92.65
2017-05-16T06:40:07.653Z,92.50
2017-05-16T06:41:08.237Z,92.44
2017-05-16T06:42:07.751Z,92.13
2017-05-16T06:43:08.351Z,92.93
2017-05-16T06:44:07.922Z,93.06
2017-05-16T06:45:08.704Z,92.17
2017-05-16T06:46:08.380Z,93.22
2017-05-16T06:47:07.910Z,92.93
2017-05-16T06:48:08.470Z,92.57
2017-05-16T06:49:08.151Z,92.43
2017-05-16T06:50:07.729Z,92.64
2017-05-16T06:51:08.392Z,93.24
2017-05-16T06:52:08.193Z,93.65
2017-05-16T06:53:07.797Z,93.50
2017-05-16T06:54:08.360Z,93.59
2017-05-16T06:55:08.063Z,93.14
2017-05-16T06:56:07.578Z,93.85
2017-05-16T06:57:08.147Z,93.32
2017-05-16T06:58:07.753Z,92.74
2017-05-16T06:59:08.341Z,92.51
2017-05-16T07:00:08.203Z,92.91
2017-05-16T07:01:07.805Z,92.23
2017-05-16T07:02:08.419Z,92.78
2017-05-16T07:03:07.991Z,91.67
2017-05-16T07:04:07.566Z,90.97
2017-05-16T07:05:08.131Z,90.06
2017-05-16T07:06:07.628Z,89.44
2017-05-16T07:07:08.216Z,89.94
2017-05-16T07:08:07.771Z,89.24
2017-05-16T07:09:08.439Z,89.50
2017-05-16T07:10:07.903Z,89.75
2017-05-16T07:11:08.521Z,89.49
2017-05-16T07:12:08.120Z,89.42
2017-05-16T07:13:07.735Z,89.67
2017-05-16T07:14:08.339Z,90.02
2017-05-16T07:15:07.971Z,89.79
2017-05-16T07:16:07.490Z,90.36
2017-05-16T07:17:08.149Z,89.53
2017-05-16T07:18:07.744Z,89.43
2017-05-16T07:19:08.345Z,89.48
2017-05-16T07:20:07.923Z,89.21
2017-05-16T07:21:08.485Z,88.85
2017-05-16T07:22:07.972Z,89.19
2017-05-16T07:23:08.309Z,87.64
2017-05-16T07:24:07.821Z,85.87
2017-05-16T07:25:08.481Z,87.42
2017-05-16T07:26:08.040Z,87.07
2017-05-16T07:27:07.664Z,87.44
2017-05-16T07:28:08.236Z,87.27
2017-05-16T07:29:07.879Z,87.64
2017-05-16T07:30:08.505Z,86.93
2017-05-16T07:31:08.069Z,86.61
2017-05-16T07:32:07.666Z,86.77
2017-05-16T07:33:08.345Z,87.12
2017-05-16T07:34:07.906Z,87.24
2017-05-16T07:35:08.520Z,86.89
2017-05-16T07:36:08.408Z,86.67
2017-05-16T07:37:08.005Z,86.32
2017-05-16T07:38:07.572Z,85.84
2017-05-16T07:39:08.124Z,85.96
2017-05-16T07:40:07.659Z,85.50
2017-05-16T07:41:08.297Z,85.65
2017-05-16T07:42:07.928Z,85.29
2017-05-16T07:43:08.513Z,85.09
2017-05-16T07:44:08.158Z,84.94
2017-05-16T07:45:07.798Z,85.11
2017-05-16T07:46:08.422Z,85.10
2017-05-16T07:47:07.965Z,85.51
2017-05-16T07:48:07.468Z,85.28
2017-05-16T07:49:08.159Z,85.13
2017-05-16T07:50:07.747Z,85.42
2017-05-16T07:51:08.311Z,84.06
2017-05-16T07:52:07.838Z,85.05
2017-05-16T07:53:08.421Z,84.56
2017-05-16T07:54:08.071Z,84.55
2017-05-16T07:55:07.737Z,84.94
2017-05-16T07:56:08.312Z,84.72
2017-05-16T07:57:07.956Z,84.59
2017-05-16T07:58:07.773Z,84.37
2017-05-16T07:59:08.316Z,84.12
2017-05-16T08:00:07.860Z,83.91
2017-05-16T08:01:08.455Z,83.77
2017-05-16T08:02:08.183Z,84.30
2017-05-16T08:03:07.718Z,83.91
2017-05-16T08:04:08.304Z,84.29
2017-05-16T08:05:07.855Z,84.18
2017-05-16T08:06:08.528Z,84.69
2017-05-16T08:07:08.155Z,84.64
2017-05-16T08:08:07.684Z,85.27
2017-05-16T08:09:08.337Z,84.88
2017-05-16T08:10:07.937Z,84.58
2017-05-16T08:11:08.488Z,84.14
2017-05-16T08:12:08.094Z,83.67
2017-05-16T08:13:07.766Z,83.44
2017-05-16T08:14:08.449Z,83.56
2017-05-16T08:15:08.177Z,84.63
2017-05-16T08:16:07.919Z,84.29
2017-05-16T08:17:08.645Z,83.99
2017-05-16T08:18:08.737Z,83.85
2017-05-16T08:19:08.360Z,83.87
2017-05-16T08:20:08.129Z,82.82
2017-05-16T08:21:07.678Z,82.89
2017-05-16T08:22:07.834Z,82.81
2017-05-16T08:23:08.440Z,82.74
2017-05-16T08:24:08.147Z,82.95
2017-05-16T08:25:07.773Z,83.10
2017-05-16T08:26:08.416Z,82.79
2017-05-16T08:27:08.016Z,82.65
2017-05-16T08:28:07.587Z,82.35
2017-05-16T08:29:08.217Z,82.66
2017-05-16T08:30:07.764Z,82.81
2017-05-16T08:31:08.416Z,83.07
2017-05-16T08:32:07.998Z,83.23
2017-05-16T08:33:07.887Z,82.02
2017-05-16T08:34:08.579Z,82.44
2017-05-16T08:35:08.174Z,82.27
2017-05-16T08:36:07.702Z,81.49
2017-05-16T08:37:08.388Z,81.54
2017-05-16T08:38:08.046Z,81.37
2017-05-16T08:39:07.748Z,81.11
2017-05-16T08:40:08.336Z,81.32
2017-05-16T08:41:07.971Z,81.89
2017-05-16T08:42:07.717Z,82.07
2017-05-16T08:43:08.338Z,81.71
2017-05-16T08:44:07.932Z,81.52
2017-05-16T08:45:08.656Z,81.82
2017-05-16T08:46:08.230Z,82.63
2017-05-16T08:47:07.822Z,81.97
2017-05-16T08:48:08.418Z,80.41
2017-05-16T08:49:08.102Z,78.02
2017-05-16T08:50:08.026Z,79.11
2017-05-16T08:51:07.523Z,78.56
2017-05-16T08:52:08.087Z,80.26
2017-05-16T08:53:07.936Z,79.81
2017-05-16T08:54:08.628Z,80.11
2017-05-16T08:55:09.109Z,80.65
2017-05-16T08:56:07.684Z,81.10
2017-05-16T08:57:08.329Z,79.56
2017-05-16T08:58:07.924Z,79.47
2017-05-16T08:59:39.290Z,79.08
2017-05-16T09:00:07.919Z,76.80
2017-05-16T09:01:08.515Z,75.88
2017-05-16T09:02:08.178Z,76.58
2017-05-16T09:03:07.806Z,76.99
2017-05-16T09:04:08.487Z,76.88
2017-05-16T09:05:08.073Z,77.27
2017-05-16T09:06:07.955Z,75.56
2017-05-16T09:07:07.517Z,77.26
2017-05-16T09:08:08.147Z,77.69
2017-05-16T09:09:09.065Z,78.47
2017-05-16T09:10:07.686Z,78.20
2017-05-16T09:11:08.212Z,79.63
2017-05-16T09:12:07.811Z,78.78
2017-05-16T09:13:08.432Z,78.82
2017-05-16T09:14:08.085Z,78.42
2017-05-16T09:15:08.020Z,78.02
2017-05-16T09:16:07.721Z,78.53
2017-05-16T09:17:08.465Z,77.51
2017-05-16T09:18:08.048Z,80.07
2017-05-16T09:19:07.655Z,79.54
2017-05-16T09:20:08.095Z,79.58
2017-05-16T09:21:07.665Z,78.24
2017-05-16T09:22:08.435Z,76.85
2017-05-16T09:23:08.078Z,77.03
2017-05-16T09:24:07.646Z,72.74
2017-05-16T09:25:08.414Z,74.44
2017-05-16T09:26:08.000Z,72.60
2017-05-16T09:27:07.543Z,74.15
2017-05-16T09:28:08.080Z,73.85
2017-05-16T09:29:07.951Z,74.86
2017-05-16T09:30:07.619Z,76.27
2017-05-16T09:31:08.205Z,75.88
2017-05-16T09:32:07.802Z,74.44
2017-05-16T09:33:08.427Z,74.19
2017-05-16T09:34:07.988Z,73.97
2017-05-16T09:35:07.448Z,75.92
2017-05-16T09:36:08.038Z,76.70
2017-05-16T09:37:07.756Z,75.50
2017-05-16T09:38:08.586Z,76.13
2017-05-16T09:39:08.145Z,75.85
2017-05-16T09:40:07.712Z,74.28
2017-05-16T09:41:08.509Z,74.36
2017-05-16T09:42:08.603Z,74.57
2017-05-16T09:43:08.225Z,73.70
2017-05-16T09:44:07.890Z,73.68
2017-05-16T09:45:07.525Z,73.89
2017-05-16T09:46:08.059Z,73.70
2017-05-16T09:47:07.628Z,72.03
2017-05-16T09:48:08.369Z,71.75
2017-05-16T09:49:07.951Z,70.92
2017-05-16T09:50:07.894Z,71.53
2017-05-16T09:51:08.474Z,71.52
2017-05-16T09:52:46.686Z,70.85
2017-05-16T09:53:08.325Z,71.49
2017-05-16T09:54:07.943Z,69.20
2017-05-16T09:55:07.603Z,69.25
2017-05-16T09:56:08.234Z,69.79
2017-05-16T09:57:07.851Z,70.27
2017-05-16T09:58:08.471Z,68.29
2017-05-16T09:59:08.026Z,68.91
2017-05-16T10:00:07.639Z,68.94
2017-05-16T10:01:08.206Z,69.82
2017-05-16T10:02:07.824Z,69.88
2017-05-16T10:03:08.461Z,66.98
2017-05-16T10:04:08.077Z,63.68
2017-05-16T10:05:07.556Z,64.85
2017-05-16T10:06:08.029Z,61.41
2017-05-16T10:07:07.650Z,63.28
2017-05-16T10:08:08.426Z,63.48
2017-05-16T10:09:07.937Z,63.08
2017-05-16T10:10:08.589Z,62.62
2017-05-16T10:11:08.366Z,64.45
2017-05-16T10:12:07.837Z,66.77
2017-05-16T10:13:08.559Z,68.28
2017-05-16T10:14:08.126Z,65.03
2017-05-16T10:15:07.712Z,66.91
2017-05-16T10:16:08.318Z,66.13
2017-05-16T10:17:18.784Z,64.92
2017-05-16T10:18:08.534Z,61.85
2017-05-16T10:19:07.970Z,62.31
2017-05-16T10:20:08.034Z,60.37
2017-05-16T10:21:07.535Z,62.19
2017-05-16T10:22:08.157Z,62.90
2017-05-16T10:23:07.735Z,62.53
2017-05-16T10:24:08.273Z,60.27
2017-05-16T10:25:07.994Z,58.90
2017-05-16T10:26:07.619Z,56.97
2017-05-16T10:27:08.177Z,56.25
2017-05-16T10:28:07.937Z,55.50
2017-05-16T10:29:08.540Z,53.83
2017-05-16T10:30:08.102Z,53.33
2017-05-16T10:31:31.274Z,52.18
2017-05-16T10:32:07.849Z,53.71
2017-05-16T10:33:08.485Z,53.89
2017-05-16T10:34:08.109Z,54.76
2017-05-16T10:35:07.741Z,56.04
2017-05-16T10:37:07.651Z,56.46
2017-05-16T10:38:08.138Z,57.22
2017-05-16T10:39:07.651Z,58.26
2017-05-16T10:40:08.221Z,58.36
2017-05-16T10:41:07.824Z,60.57
2017-05-16T10:42:08.451Z,61.04
2017-05-16T10:43:08.025Z,61.51
2017-05-16T10:44:07.576Z,56.99
2017-05-16T10:45:08.149Z,57.57
2017-05-16T10:46:07.644Z,56.93
2017-05-16T10:47:08.370Z,59.01
2017-05-16T10:48:07.925Z,58.35
2017-05-16T10:49:08.577Z,58.02
2017-05-16T10:50:26.333Z,59.41
2017-05-16T10:51:07.876Z,58.35
2017-05-16T10:52:08.493Z,56.98
2017-05-16T10:53:08.094Z,58.49
2017-05-16T10:54:07.696Z,56.80
2017-05-16T10:55:08.329Z,57.04
2017-05-16T10:56:08.016Z,53.44
2017-05-16T10:57:07.453Z,53.88
2017-05-16T10:58:08.028Z,55.67
2017-05-16T10:59:07.521Z,56.94
2017-05-16T11:00:08.236Z,56.24
2017-05-16T11:01:07.853Z,55.89
2017-05-16T11:02:08.465Z,56.76
2017-05-16T11:03:08.131Z,57.96
2017-05-16T11:04:07.626Z,56.79
2017-05-16T11:05:08.317Z,57.71
2017-05-16T11:06:07.886Z,57.10
2017-05-16T11:07:08.551Z,56.52
2017-05-16T11:08:08.063Z,57.23
2017-05-16T11:09:07.845Z,56.33
2017-05-16T11:10:08.485Z,56.27
2017-05-16T11:11:08.181Z,56.07
2017-05-16T11:12:07.762Z,56.66
2017-05-16T11:13:17.889Z,56.29
2017-05-16T11:14:08.481Z,56.44
2017-05-16T11:15:08.163Z,56.44
2017-05-16T11:16:07.710Z,56.57
2017-05-16T11:17:08.621Z,55.07
2017-05-16T11:18:08.274Z,55.05
2017-05-16T11:19:08.079Z,52.90
2017-05-16T11:21:01.758Z,53.27
2017-05-16T11:21:08.187Z,53.72
2017-05-16T11:22:07.683Z,54.18
2017-05-16T11:23:08.301Z,54.01
2017-05-16T11:24:08.245Z,52.46
2017-05-16T11:25:08.128Z,52.79
2017-05-16T11:26:07.700Z,53.23
2017-05-16T11:27:08.261Z,53.61
2017-05-16T11:28:08.756Z,53.92
2017-05-16T11:29:08.301Z,54.59
2017-05-16T11:30:07.942Z,54.90
2017-05-16T11:31:07.830Z,57.69
2017-05-16T11:32:08.507Z,60.82
2017-05-16T11:33:08.091Z,60.69
2017-05-16T11:34:07.735Z,60.32
2017-05-16T11:35:08.398Z,59.87
2017-05-16T11:36:07.917Z,58.86
2017-05-16T11:37:08.638Z,58.43
2017-05-16T11:38:08.261Z,57.30
2017-05-16T11:39:07.823Z,57.07
2017-05-16T11:40:08.402Z,56.90
2017-05-16T11:41:07.981Z,56.64
2017-05-16T11:42:07.586Z,57.10
2017-05-16T11:43:08.167Z,57.92
2017-05-16T11:44:07.754Z,58.46
2017-05-16T11:45:08.357Z,58.13
2017-05-16T11:46:08.063Z,57.92
2017-05-16T11:47:07.642Z,58.23
2017-05-16T11:48:08.326Z,58.46
2017-05-16T11:49:07.930Z,58.79
2017-05-16T11:50:08.526Z,59.64
2017-05-16T11:51:08.469Z,60.10
2017-05-16T11:52:08.343Z,60.17
2017-05-16T11:53:07.961Z,58.37
2017-05-16T11:54:07.485Z,59.03
2017-05-16T11:55:08.129Z,59.00
2017-05-16T11:56:07.738Z,61.37
2017-05-16T11:57:08.416Z,62.65
2017-05-16T11:58:08.247Z,61.77
2017-05-16T11:59:07.872Z,63.88
2017-05-16T12:00:08.443Z,62.96
2017-05-16T12:01:08.043Z,62.53
2017-05-16T12:02:07.578Z,62.55
2017-05-16T12:03:08.179Z,61.58
2017-05-16T12:04:07.908Z,61.97
2017-05-16T12:05:08.538Z,61.86
2017-05-16T12:06:08.120Z,62.07
2017-05-16T12:07:07.772Z,61.93
2017-05-16T12:08:08.379Z,59.12
2017-05-16T12:09:07.844Z,60.46
2017-05-16T12:10:08.457Z,60.40
2017-05-16T12:11:08.908Z,60.08
2017-05-16T12:12:08.537Z,60.72
2017-05-16T12:13:08.103Z,59.77
2017-05-16T12:14:07.643Z,58.75
2017-05-16T12:15:08.399Z,57.65
2017-05-16T12:16:07.994Z,58.06
2017-05-16T12:17:07.962Z,59.10
2017-05-16T12:18:07.682Z,60.83
2017-05-16T12:19:08.224Z,60.90
2017-05-16T12:20:07.754Z,62.08
2017-05-16T12:21:08.412Z,60.75
2017-05-16T12:22:08.071Z,61.73
2017-05-16T12:23:07.669Z,61.19
2017-05-16T12:24:08.307Z,61.01
2017-05-16T12:25:07.949Z,61.09
2017-05-16T12:26:07.531Z,60.21
2017-05-16T12:27:08.075Z,60.56
2017-05-16T12:28:07.781Z,60.94
2017-05-16T12:29:08.500Z,59.05
2017-05-16T12:30:08.173Z,59.28
2017-05-16T12:31:07.981Z,58.60
2017-05-16T12:32:07.587Z,57.85
2017-05-16T12:33:09.262Z,57.16
2017-05-16T12:34:07.910Z,56.15
2017-05-16T12:35:08.476Z,54.84
2017-05-16T12:36:08.083Z,56.48
2017-05-16T12:37:07.567Z,56.58
2017-05-16T12:38:08.175Z,55.61
2017-05-16T12:39:07.701Z,56.31
2017-05-16T12:40:08.239Z,58.15
2017-05-16T12:41:07.771Z,55.91
2017-05-16T12:42:08.404Z,56.20
2017-05-16T12:43:08.077Z,57.97
2017-05-16T12:44:07.882Z,59.12
2017-05-16T12:45:08.456Z,59.37
2017-05-16T12:46:08.025Z,59.56
2017-05-16T12:47:07.632Z,59.25
2017-05-16T12:48:08.273Z,59.92
2017-05-16T12:49:07.825Z,60.46
2017-05-16T12:50:08.433Z,61.40
2017-05-16T12:51:07.993Z,61.01
2017-05-16T12:52:07.464Z,62.14
2017-05-16T12:53:08.009Z,60.79